sensor_id;sensor_type;location;lat;lon;timestamp;P1;durP1;ratioP1;P2;durP2;ratioP2
966;SDS011;56108;48.730;9.304;2022-10-04T00:01:21;17.55;;;15.75;;
966;SDS011;56108;48.730;9.304;2022-10-04T00:03:35;18.98;;;15.90;;
966;SDS011;56108;48.730;9.304;2022-10-04T00:05:50;19.75;;;17.23;;
966;SDS011;56108;48.730;9.304;2022-10-04T00:08:03;18.10;;;16.05;;
966;SDS011;56108;48.730;9.304;2022-10-04T00:10:22;18.38;;;16.00;;
966;SDS011;56108;48.730;9.304;2022-10-04T00:12:44;17.67;;;15.25;;
966;SDS011;56108;48.730;9.304;2022-10-04T00:14:56;18.92;;;16.27;;
966;SDS011;56108;48.730;9.304;2022-10-04T00:17:07;18.77;;;15.70;;
966;SDS011;56108;48.730;9.304;2022-10-04T00:19:26;20.05;;;15.80;;
966;SDS011;56108;48.730;9.304;2022-10-04T00:22:07;17.70;;;14.88;;
966;SDS011;56108;48.730;9.304;2022-10-04T00:24:18;18.55;;;16.40;;
966;SDS011;56108;48.730;9.304;2022-10-04T00:34:45;15.52;;;13.32;;
966;SDS011;56108;48.730;9.304;2022-10-04T00:36:55;17.08;;;14.30;;
966;SDS011;56108;48.730;9.304;2022-10-04T00:39:14;17.70;;;14.70;;
966;SDS011;56108;48.730;9.304;2022-10-04T00:41:41;18.50;;;15.00;;
966;SDS011;56108;48.730;9.304;2022-10-04T00:43:59;14.90;;;13.40;;
966;SDS011;56108;48.730;9.304;2022-10-04T00:46:12;17.02;;;15.23;;
966;SDS011;56108;48.730;9.304;2022-10-04T00:48:30;21.08;;;16.10;;
966;SDS011;56108;48.730;9.304;2022-10-04T00:50:43;18.30;;;16.40;;
966;SDS011;56108;48.730;9.304;2022-10-04T00:52:58;17.15;;;15.38;;
966;SDS011;56108;48.730;9.304;2022-10-04T00:55:08;19.42;;;15.88;;
966;SDS011;56108;48.730;9.304;2022-10-04T00:57:27;21.65;;;15.23;;
966;SDS011;56108;48.730;9.304;2022-10-04T00:59:38;15.77;;;14.15;;
966;SDS011;56108;48.730;9.304;2022-10-04T01:01:53;23.10;;;14.75;;
966;SDS011;56108;48.730;9.304;2022-10-04T01:04:06;15.85;;;13.00;;
966;SDS011;56108;48.730;9.304;2022-10-04T01:06:33;20.75;;;15.35;;
966;SDS011;56108;48.730;9.304;2022-10-04T01:08:45;20.00;;;14.98;;
966;SDS011;56108;48.730;9.304;2022-10-04T01:10:59;19.23;;;15.73;;
966;SDS011;56108;48.730;9.304;2022-10-04T01:13:12;16.52;;;14.45;;
966;SDS011;56108;48.730;9.304;2022-10-04T01:15:25;16.13;;;14.50;;
966;SDS011;56108;48.730;9.304;2022-10-04T01:17:43;17.13;;;15.35;;
966;SDS011;56108;48.730;9.304;2022-10-04T01:20:33;17.20;;;15.05;;
966;SDS011;56108;48.730;9.304;2022-10-04T01:22:48;15.18;;;13.60;;
966;SDS011;56108;48.730;9.304;2022-10-04T01:24:57;19.23;;;14.05;;
966;SDS011;56108;48.730;9.304;2022-10-04T01:27:06;15.30;;;12.45;;
966;SDS011;56108;48.730;9.304;2022-10-04T01:29:50;15.68;;;13.65;;
966;SDS011;56108;48.730;9.304;2022-10-04T01:31:59;15.70;;;14.10;;
966;SDS011;56108;48.730;9.304;2022-10-04T01:34:08;15.80;;;14.20;;
966;SDS011;56108;48.730;9.304;2022-10-04T01:36:20;18.13;;;13.55;;
966;SDS011;56108;48.730;9.304;2022-10-04T01:38:29;19.52;;;13.95;;
966;SDS011;56108;48.730;9.304;2022-10-04T01:40:38;15.43;;;13.90;;
966;SDS011;56108;48.730;9.304;2022-10-04T01:42:55;17.95;;;14.07;;
966;SDS011;56108;48.730;9.304;2022-10-04T01:45:12;14.68;;;12.93;;
966;SDS011;56108;48.730;9.304;2022-10-04T01:47:28;15.95;;;13.43;;
966;SDS011;56108;48.730;9.304;2022-10-04T01:49:40;18.63;;;13.10;;
966;SDS011;56108;48.730;9.304;2022-10-04T01:51:54;14.25;;;12.73;;
966;SDS011;56108;48.730;9.304;2022-10-04T01:54:09;15.55;;;13.15;;
966;SDS011;56108;48.730;9.304;2022-10-04T01:56:22;15.85;;;14.18;;
966;SDS011;56108;48.730;9.304;2022-10-04T01:58:38;15.50;;;14.05;;
966;SDS011;56108;48.730;9.304;2022-10-04T02:00:52;16.90;;;15.20;;
966;SDS011;56108;48.730;9.304;2022-10-04T02:03:07;16.38;;;14.25;;
966;SDS011;56108;48.730;9.304;2022-10-04T02:05:25;16.77;;;15.18;;
966;SDS011;56108;48.730;9.304;2022-10-04T02:07:37;16.10;;;14.40;;
966;SDS011;56108;48.730;9.304;2022-10-04T02:09:48;16.63;;;13.60;;
966;SDS011;56108;48.730;9.304;2022-10-04T02:12:03;15.82;;;14.13;;
966;SDS011;56108;48.730;9.304;2022-10-04T02:14:15;13.68;;;12.27;;
966;SDS011;56108;48.730;9.304;2022-10-04T02:16:25;17.13;;;13.85;;
966;SDS011;56108;48.730;9.304;2022-10-04T02:18:34;16.73;;;12.43;;
966;SDS011;56108;48.730;9.304;2022-10-04T02:20:47;18.63;;;13.20;;
966;SDS011;56108;48.730;9.304;2022-10-04T02:22:58;14.48;;;13.13;;
966;SDS011;56108;48.730;9.304;2022-10-04T02:25:08;21.77;;;14.13;;
966;SDS011;56108;48.730;9.304;2022-10-04T02:27:17;13.25;;;12.05;;
966;SDS011;56108;48.730;9.304;2022-10-04T02:29:29;13.20;;;11.90;;
966;SDS011;56108;48.730;9.304;2022-10-04T02:31:37;15.50;;;13.25;;
966;SDS011;56108;48.730;9.304;2022-10-04T02:33:59;15.98;;;12.90;;
966;SDS011;56108;48.730;9.304;2022-10-04T02:36:07;14.52;;;12.93;;
966;SDS011;56108;48.730;9.304;2022-10-04T02:38:18;18.23;;;12.55;;
966;SDS011;56108;48.730;9.304;2022-10-04T02:40:33;15.85;;;13.15;;
966;SDS011;56108;48.730;9.304;2022-10-04T02:42:49;17.58;;;12.70;;
966;SDS011;56108;48.730;9.304;2022-10-04T02:45:08;18.65;;;12.48;;
966;SDS011;56108;48.730;9.304;2022-10-04T02:47:26;16.20;;;12.40;;
966;SDS011;56108;48.730;9.304;2022-10-04T02:49:43;13.93;;;12.52;;
966;SDS011;56108;48.730;9.304;2022-10-04T02:51:56;15.80;;;11.98;;
966;SDS011;56108;48.730;9.304;2022-10-04T02:54:10;13.48;;;11.00;;
966;SDS011;56108;48.730;9.304;2022-10-04T02:56:23;14.38;;;12.82;;
966;SDS011;56108;48.730;9.304;2022-10-04T02:58:32;14.57;;;11.80;;
966;SDS011;56108;48.730;9.304;2022-10-04T03:00:49;16.35;;;12.48;;
966;SDS011;56108;48.730;9.304;2022-10-04T03:03:10;13.13;;;11.68;;
966;SDS011;56108;48.730;9.304;2022-10-04T03:05:22;17.13;;;13.75;;
966;SDS011;56108;48.730;9.304;2022-10-04T03:07:31;16.63;;;12.50;;
966;SDS011;56108;48.730;9.304;2022-10-04T03:09:41;13.95;;;11.20;;
966;SDS011;56108;48.730;9.304;2022-10-04T03:11:49;14.20;;;12.43;;
966;SDS011;56108;48.730;9.304;2022-10-04T03:13:59;15.00;;;11.52;;
966;SDS011;56108;48.730;9.304;2022-10-04T03:16:11;16.20;;;12.93;;
966;SDS011;56108;48.730;9.304;2022-10-04T03:18:21;13.60;;;12.18;;
966;SDS011;56108;48.730;9.304;2022-10-04T03:20:31;13.55;;;12.07;;
966;SDS011;56108;48.730;9.304;2022-10-04T03:22:43;16.15;;;13.00;;
966;SDS011;56108;48.730;9.304;2022-10-04T03:24:53;14.43;;;12.93;;
966;SDS011;56108;48.730;9.304;2022-10-04T03:27:05;17.63;;;13.15;;
966;SDS011;56108;48.730;9.304;2022-10-04T03:29:15;17.77;;;14.20;;
966;SDS011;56108;48.730;9.304;2022-10-04T03:31:29;14.88;;;13.43;;
966;SDS011;56108;48.730;9.304;2022-10-04T03:33:40;14.43;;;12.98;;
966;SDS011;56108;48.730;9.304;2022-10-04T03:35:51;17.05;;;13.32;;
966;SDS011;56108;48.730;9.304;2022-10-04T03:38:03;15.50;;;13.10;;
966;SDS011;56108;48.730;9.304;2022-10-04T03:40:14;16.05;;;14.32;;
966;SDS011;56108;48.730;9.304;2022-10-04T03:42:23;15.15;;;13.57;;
966;SDS011;56108;48.730;9.304;2022-10-04T03:44:32;16.75;;;14.95;;
966;SDS011;56108;48.730;9.304;2022-10-04T03:46:44;16.33;;;14.52;;
966;SDS011;56108;48.730;9.304;2022-10-04T03:48:53;15.80;;;14.30;;
966;SDS011;56108;48.730;9.304;2022-10-04T03:51:04;16.02;;;14.32;;
966;SDS011;56108;48.730;9.304;2022-10-04T03:53:17;16.48;;;14.60;;
966;SDS011;56108;48.730;9.304;2022-10-04T03:55:34;16.60;;;14.90;;
966;SDS011;56108;48.730;9.304;2022-10-04T03:57:45;14.55;;;13.15;;
966;SDS011;56108;48.730;9.304;2022-10-04T03:59:55;14.40;;;12.90;;
966;SDS011;56108;48.730;9.304;2022-10-04T04:02:20;15.85;;;14.35;;
966;SDS011;56108;48.730;9.304;2022-10-04T04:04:40;17.30;;;13.48;;
966;SDS011;56108;48.730;9.304;2022-10-04T04:06:58;14.07;;;12.02;;
966;SDS011;56108;48.730;9.304;2022-10-04T04:09:14;15.32;;;13.73;;
966;SDS011;56108;48.730;9.304;2022-10-04T04:11:26;13.60;;;12.20;;
966;SDS011;56108;48.730;9.304;2022-10-04T04:13:40;19.90;;;15.02;;
966;SDS011;56108;48.730;9.304;2022-10-04T04:15:54;18.05;;;15.32;;
966;SDS011;56108;48.730;9.304;2022-10-04T04:18:06;15.00;;;12.48;;
966;SDS011;56108;48.730;9.304;2022-10-04T04:20:22;15.43;;;12.90;;
966;SDS011;56108;48.730;9.304;2022-10-04T04:22:33;14.38;;;13.05;;
966;SDS011;56108;48.730;9.304;2022-10-04T04:24:45;13.30;;;11.50;;
966;SDS011;56108;48.730;9.304;2022-10-04T04:26:55;15.60;;;14.00;;
966;SDS011;56108;48.730;9.304;2022-10-04T04:29:06;14.75;;;13.20;;
966;SDS011;56108;48.730;9.304;2022-10-04T04:31:21;15.25;;;13.73;;
966;SDS011;56108;48.730;9.304;2022-10-04T04:33:38;14.13;;;12.80;;
966;SDS011;56108;48.730;9.304;2022-10-04T04:35:53;14.52;;;12.60;;
966;SDS011;56108;48.730;9.304;2022-10-04T04:38:06;16.67;;;14.25;;
966;SDS011;56108;48.730;9.304;2022-10-04T04:40:24;15.73;;;14.13;;
966;SDS011;56108;48.730;9.304;2022-10-04T04:42:32;17.67;;;15.73;;
966;SDS011;56108;48.730;9.304;2022-10-04T04:44:46;18.00;;;16.15;;
966;SDS011;56108;48.730;9.304;2022-10-04T04:46:59;15.75;;;14.05;;
966;SDS011;56108;48.730;9.304;2022-10-04T04:49:10;16.20;;;14.25;;
966;SDS011;56108;48.730;9.304;2022-10-04T04:51:22;13.38;;;11.38;;
966;SDS011;56108;48.730;9.304;2022-10-04T04:53:33;13.75;;;12.45;;
966;SDS011;56108;48.730;9.304;2022-10-04T04:55:45;15.57;;;13.93;;
966;SDS011;56108;48.730;9.304;2022-10-04T04:58:09;15.27;;;13.88;;
966;SDS011;56108;48.730;9.304;2022-10-04T05:00:27;15.13;;;13.18;;
966;SDS011;56108;48.730;9.304;2022-10-04T05:02:49;14.52;;;13.05;;
966;SDS011;56108;48.730;9.304;2022-10-04T05:05:18;15.23;;;13.60;;
966;SDS011;56108;48.730;9.304;2022-10-04T05:07:29;14.25;;;12.90;;
966;SDS011;56108;48.730;9.304;2022-10-04T05:09:38;14.75;;;13.30;;
966;SDS011;56108;48.730;9.304;2022-10-04T05:11:46;14.80;;;12.50;;
966;SDS011;56108;48.730;9.304;2022-10-04T05:13:56;13.93;;;12.55;;
966;SDS011;56108;48.730;9.304;2022-10-04T05:16:09;22.98;;;12.77;;
966;SDS011;56108;48.730;9.304;2022-10-04T05:18:33;12.88;;;11.48;;
966;SDS011;56108;48.730;9.304;2022-10-04T05:20:45;36.40;;;13.73;;
966;SDS011;56108;48.730;9.304;2022-10-04T05:22:58;15.60;;;10.88;;
966;SDS011;56108;48.730;9.304;2022-10-04T05:25:07;73.07;;;17.35;;
966;SDS011;56108;48.730;9.304;2022-10-04T05:27:22;46.80;;;15.55;;
966;SDS011;56108;48.730;9.304;2022-10-04T05:29:38;46.63;;;13.73;;
966;SDS011;56108;48.730;9.304;2022-10-04T05:32:08;73.82;;;17.45;;
966;SDS011;56108;48.730;9.304;2022-10-04T05:34:29;103.10;;;18.50;;
966;SDS011;56108;48.730;9.304;2022-10-04T05:39:21;198.18;;;32.20;;
966;SDS011;56108;48.730;9.304;2022-10-04T05:41:35;140.98;;;24.77;;
966;SDS011;56108;48.730;9.304;2022-10-04T05:43:51;306.23;;;37.17;;
966;SDS011;56108;48.730;9.304;2022-10-04T05:46:11;279.05;;;40.15;;
966;SDS011;56108;48.730;9.304;2022-10-04T05:48:22;446.15;;;51.78;;
966;SDS011;56108;48.730;9.304;2022-10-04T05:50:32;130.30;;;26.45;;
966;SDS011;56108;48.730;9.304;2022-10-04T05:52:47;85.38;;;19.77;;
966;SDS011;56108;48.730;9.304;2022-10-04T05:57:35;47.35;;;16.13;;
966;SDS011;56108;48.730;9.304;2022-10-04T06:00:08;27.23;;;13.10;;
966;SDS011;56108;48.730;9.304;2022-10-04T06:02:24;37.90;;;14.38;;
966;SDS011;56108;48.730;9.304;2022-10-04T06:04:45;22.60;;;12.65;;
966;SDS011;56108;48.730;9.304;2022-10-04T06:07:08;19.27;;;12.70;;
966;SDS011;56108;48.730;9.304;2022-10-04T06:09:38;14.63;;;13.20;;
966;SDS011;56108;48.730;9.304;2022-10-04T06:12:10;24.15;;;13.40;;
966;SDS011;56108;48.730;9.304;2022-10-04T06:17:10;16.33;;;11.93;;
966;SDS011;56108;48.730;9.304;2022-10-04T06:19:39;15.02;;;12.50;;
966;SDS011;56108;48.730;9.304;2022-10-04T06:22:09;20.35;;;14.05;;
966;SDS011;56108;48.730;9.304;2022-10-04T06:24:22;14.35;;;12.95;;
966;SDS011;56108;48.730;9.304;2022-10-04T06:26:36;15.52;;;13.90;;
966;SDS011;56108;48.730;9.304;2022-10-04T06:28:51;15.15;;;13.55;;
966;SDS011;56108;48.730;9.304;2022-10-04T06:31:08;15.13;;;13.73;;
966;SDS011;56108;48.730;9.304;2022-10-04T06:33:37;14.55;;;13.25;;
966;SDS011;56108;48.730;9.304;2022-10-04T06:39:03;12.63;;;11.43;;
966;SDS011;56108;48.730;9.304;2022-10-04T06:46:51;12.38;;;11.18;;
966;SDS011;56108;48.730;9.304;2022-10-04T06:49:14;12.82;;;11.73;;
966;SDS011;56108;48.730;9.304;2022-10-04T06:51:33;13.63;;;12.25;;
966;SDS011;56108;48.730;9.304;2022-10-04T06:53:56;13.90;;;12.65;;
966;SDS011;56108;48.730;9.304;2022-10-04T06:56:20;14.20;;;12.70;;
966;SDS011;56108;48.730;9.304;2022-10-04T06:58:52;14.35;;;12.90;;
966;SDS011;56108;48.730;9.304;2022-10-04T07:01:16;13.50;;;12.10;;
966;SDS011;56108;48.730;9.304;2022-10-04T07:03:32;14.02;;;12.68;;
966;SDS011;56108;48.730;9.304;2022-10-04T07:05:47;14.23;;;12.73;;
966;SDS011;56108;48.730;9.304;2022-10-04T07:08:02;13.85;;;12.55;;
966;SDS011;56108;48.730;9.304;2022-10-04T07:10:39;14.88;;;12.35;;
966;SDS011;56108;48.730;9.304;2022-10-04T07:13:03;13.23;;;11.93;;
966;SDS011;56108;48.730;9.304;2022-10-04T07:15:20;13.25;;;11.95;;
966;SDS011;56108;48.730;9.304;2022-10-04T07:17:35;12.25;;;10.93;;
966;SDS011;56108;48.730;9.304;2022-10-04T07:19:47;13.55;;;12.15;;
966;SDS011;56108;48.730;9.304;2022-10-04T07:21:59;12.43;;;11.13;;
966;SDS011;56108;48.730;9.304;2022-10-04T07:24:17;10.85;;;9.95;;
966;SDS011;56108;48.730;9.304;2022-10-04T07:26:32;10.88;;;9.88;;
966;SDS011;56108;48.730;9.304;2022-10-04T07:28:44;10.40;;;9.15;;
966;SDS011;56108;48.730;9.304;2022-10-04T07:31:12;10.60;;;9.20;;
966;SDS011;56108;48.730;9.304;2022-10-04T07:33:30;10.85;;;9.80;;
966;SDS011;56108;48.730;9.304;2022-10-04T07:35:44;11.05;;;9.18;;
966;SDS011;56108;48.730;9.304;2022-10-04T07:37:56;9.63;;;8.80;;
966;SDS011;56108;48.730;9.304;2022-10-04T07:40:17;10.77;;;9.77;;
966;SDS011;56108;48.730;9.304;2022-10-04T07:42:31;10.70;;;9.70;;
966;SDS011;56108;48.730;9.304;2022-10-04T07:44:45;9.95;;;9.02;;
966;SDS011;56108;48.730;9.304;2022-10-04T07:47:08;10.75;;;9.02;;
966;SDS011;56108;48.730;9.304;2022-10-04T07:49:24;9.48;;;8.57;;
966;SDS011;56108;48.730;9.304;2022-10-04T07:51:36;9.23;;;8.43;;
966;SDS011;56108;48.730;9.304;2022-10-04T07:53:50;9.93;;;8.98;;
966;SDS011;56108;48.730;9.304;2022-10-04T07:56:05;8.50;;;7.80;;
966;SDS011;56108;48.730;9.304;2022-10-04T07:58:20;9.07;;;8.18;;
966;SDS011;56108;48.730;9.304;2022-10-04T08:00:37;9.32;;;7.90;;
966;SDS011;56108;48.730;9.304;2022-10-04T08:03:02;8.85;;;7.97;;
966;SDS011;56108;48.730;9.304;2022-10-04T08:05:26;8.18;;;7.47;;
966;SDS011;56108;48.730;9.304;2022-10-04T08:07:43;8.98;;;7.93;;
966;SDS011;56108;48.730;9.304;2022-10-04T08:10:12;10.05;;;8.23;;
966;SDS011;56108;48.730;9.304;2022-10-04T08:12:33;7.68;;;6.68;;
966;SDS011;56108;48.730;9.304;2022-10-04T08:15:07;10.75;;;6.80;;
966;SDS011;56108;48.730;9.304;2022-10-04T08:17:39;7.78;;;7.00;;
966;SDS011;56108;48.730;9.304;2022-10-04T08:20:00;7.63;;;6.80;;
966;SDS011;56108;48.730;9.304;2022-10-04T08:22:26;8.35;;;7.10;;
966;SDS011;56108;48.730;9.304;2022-10-04T08:24:41;7.75;;;6.70;;
966;SDS011;56108;48.730;9.304;2022-10-04T08:27:02;8.45;;;7.43;;
966;SDS011;56108;48.730;9.304;2022-10-04T08:29:38;11.15;;;7.65;;
966;SDS011;56108;48.730;9.304;2022-10-04T08:31:59;8.38;;;7.63;;
966;SDS011;56108;48.730;9.304;2022-10-04T08:34:16;7.22;;;6.57;;
966;SDS011;56108;48.730;9.304;2022-10-04T08:36:50;8.77;;;7.10;;
966;SDS011;56108;48.730;9.304;2022-10-04T08:39:14;7.30;;;6.60;;
966;SDS011;56108;48.730;9.304;2022-10-04T08:41:43;7.82;;;6.90;;
966;SDS011;56108;48.730;9.304;2022-10-04T08:44:29;8.43;;;7.53;;
966;SDS011;56108;48.730;9.304;2022-10-04T08:55:15;7.53;;;6.82;;
966;SDS011;56108;48.730;9.304;2022-10-04T08:57:55;8.00;;;6.90;;
966;SDS011;56108;48.730;9.304;2022-10-04T09:00:22;8.38;;;7.57;;
966;SDS011;56108;48.730;9.304;2022-10-04T09:03:00;8.07;;;7.43;;
966;SDS011;56108;48.730;9.304;2022-10-04T09:10:55;7.55;;;6.78;;
966;SDS011;56108;48.730;9.304;2022-10-04T09:13:22;8.18;;;7.38;;
966;SDS011;56108;48.730;9.304;2022-10-04T09:15:59;8.32;;;6.70;;
966;SDS011;56108;48.730;9.304;2022-10-04T09:18:19;7.13;;;6.53;;
966;SDS011;56108;48.730;9.304;2022-10-04T09:20:44;6.15;;;5.65;;
966;SDS011;56108;48.730;9.304;2022-10-04T09:23:05;7.60;;;5.47;;
966;SDS011;56108;48.730;9.304;2022-10-04T09:25:41;5.10;;;4.70;;
966;SDS011;56108;48.730;9.304;2022-10-04T09:30:34;5.50;;;5.00;;
966;SDS011;56108;48.730;9.304;2022-10-04T09:38:34;7.10;;;5.70;;
966;SDS011;56108;48.730;9.304;2022-10-04T09:41:29;5.90;;;5.33;;
966;SDS011;56108;48.730;9.304;2022-10-04T09:43:49;6.50;;;5.90;;
966;SDS011;56108;48.730;9.304;2022-10-04T09:46:22;5.60;;;5.20;;
966;SDS011;56108;48.730;9.304;2022-10-04T09:48:48;5.47;;;5.07;;
966;SDS011;56108;48.730;9.304;2022-10-04T09:51:09;6.47;;;5.70;;
966;SDS011;56108;48.730;9.304;2022-10-04T09:53:49;6.63;;;6.10;;
966;SDS011;56108;48.730;9.304;2022-10-04T09:56:13;6.10;;;5.60;;
966;SDS011;56108;48.730;9.304;2022-10-04T09:58:52;6.33;;;5.73;;
966;SDS011;56108;48.730;9.304;2022-10-04T10:01:12;5.80;;;5.30;;
966;SDS011;56108;48.730;9.304;2022-10-04T10:03:40;5.93;;;5.23;;
966;SDS011;56108;48.730;9.304;2022-10-04T10:08:53;5.27;;;4.77;;
966;SDS011;56108;48.730;9.304;2022-10-04T10:11:14;6.07;;;4.97;;
966;SDS011;56108;48.730;9.304;2022-10-04T10:16:36;6.03;;;5.43;;
966;SDS011;56108;48.730;9.304;2022-10-04T10:18:52;5.55;;;5.05;;
966;SDS011;56108;48.730;9.304;2022-10-04T10:23:57;6.57;;;6.00;;
966;SDS011;56108;48.730;9.304;2022-10-04T10:26:18;6.93;;;6.30;;
966;SDS011;56108;48.730;9.304;2022-10-04T10:28:43;6.60;;;6.00;;
966;SDS011;56108;48.730;9.304;2022-10-04T10:31:20;9.82;;;6.82;;
966;SDS011;56108;48.730;9.304;2022-10-04T10:36:40;6.13;;;5.63;;
966;SDS011;56108;48.730;9.304;2022-10-04T10:38:59;8.50;;;5.90;;
966;SDS011;56108;48.730;9.304;2022-10-04T10:41:37;6.45;;;5.85;;
966;SDS011;56108;48.730;9.304;2022-10-04T10:46:38;6.93;;;6.35;;
966;SDS011;56108;48.730;9.304;2022-10-04T10:49:12;7.70;;;5.95;;
966;SDS011;56108;48.730;9.304;2022-10-04T10:54:35;8.32;;;7.63;;
966;SDS011;56108;48.730;9.304;2022-10-04T10:56:56;8.13;;;7.28;;
966;SDS011;56108;48.730;9.304;2022-10-04T10:59:24;7.30;;;6.68;;
966;SDS011;56108;48.730;9.304;2022-10-04T11:04:50;6.97;;;6.28;;
966;SDS011;56108;48.730;9.304;2022-10-04T11:07:19;7.00;;;6.40;;
966;SDS011;56108;48.730;9.304;2022-10-04T11:09:47;7.75;;;7.05;;
966;SDS011;56108;48.730;9.304;2022-10-04T11:14:54;6.45;;;5.85;;
966;SDS011;56108;48.730;9.304;2022-10-04T11:17:36;6.60;;;5.90;;
966;SDS011;56108;48.730;9.304;2022-10-04T11:20:04;7.60;;;6.70;;
966;SDS011;56108;48.730;9.304;2022-10-04T11:25:36;8.02;;;6.40;;
966;SDS011;56108;48.730;9.304;2022-10-04T11:28:20;6.63;;;5.95;;
966;SDS011;56108;48.730;9.304;2022-10-04T11:30:39;5.65;;;5.05;;
966;SDS011;56108;48.730;9.304;2022-10-04T11:36:17;6.20;;;5.70;;
966;SDS011;56108;48.730;9.304;2022-10-04T11:38:51;5.10;;;4.60;;
966;SDS011;56108;48.730;9.304;2022-10-04T11:41:11;6.05;;;4.40;;
966;SDS011;56108;48.730;9.304;2022-10-04T11:43:33;7.70;;;5.28;;
966;SDS011;56108;48.730;9.304;2022-10-04T11:48:42;6.20;;;5.60;;
966;SDS011;56108;48.730;9.304;2022-10-04T11:51:07;6.07;;;5.47;;
966;SDS011;56108;48.730;9.304;2022-10-04T11:53:46;7.30;;;5.57;;
966;SDS011;56108;48.730;9.304;2022-10-04T11:56:23;6.10;;;5.43;;
966;SDS011;56108;48.730;9.304;2022-10-04T11:58:47;5.97;;;5.40;;
966;SDS011;56108;48.730;9.304;2022-10-04T12:01:11;6.80;;;5.45;;
966;SDS011;56108;48.730;9.304;2022-10-04T12:03:41;5.80;;;5.07;;
966;SDS011;56108;48.730;9.304;2022-10-04T12:06:22;5.90;;;5.10;;
966;SDS011;56108;48.730;9.304;2022-10-04T12:08:46;5.00;;;4.60;;
966;SDS011;56108;48.730;9.304;2022-10-04T12:11:13;6.55;;;5.95;;
966;SDS011;56108;48.730;9.304;2022-10-04T12:13:57;7.35;;;5.15;;
966;SDS011;56108;48.730;9.304;2022-10-04T12:21:52;6.47;;;5.90;;
966;SDS011;56108;48.730;9.304;2022-10-04T12:24:07;6.50;;;5.90;;
966;SDS011;56108;48.730;9.304;2022-10-04T12:26:32;7.28;;;5.95;;
966;SDS011;56108;48.730;9.304;2022-10-04T12:31:33;5.55;;;5.05;;
966;SDS011;56108;48.730;9.304;2022-10-04T12:33:51;7.00;;;6.30;;
966;SDS011;56108;48.730;9.304;2022-10-04T12:36:10;6.80;;;6.10;;
966;SDS011;56108;48.730;9.304;2022-10-04T12:38:46;7.32;;;5.63;;
966;SDS011;56108;48.730;9.304;2022-10-04T12:41:02;10.75;;;5.50;;
966;SDS011;56108;48.730;9.304;2022-10-04T12:43:19;5.60;;;5.10;;
966;SDS011;56108;48.730;9.304;2022-10-04T12:45:41;6.75;;;6.03;;
966;SDS011;56108;48.730;9.304;2022-10-04T12:48:02;5.93;;;5.30;;
966;SDS011;56108;48.730;9.304;2022-10-04T12:50:24;6.85;;;5.55;;
966;SDS011;56108;48.730;9.304;2022-10-04T12:52:44;5.50;;;4.95;;
966;SDS011;56108;48.730;9.304;2022-10-04T12:55:08;7.53;;;5.35;;
966;SDS011;56108;48.730;9.304;2022-10-04T12:57:31;4.88;;;4.47;;
966;SDS011;56108;48.730;9.304;2022-10-04T12:59:53;5.35;;;4.72;;
966;SDS011;56108;48.730;9.304;2022-10-04T13:02:20;6.15;;;5.57;;
966;SDS011;56108;48.730;9.304;2022-10-04T13:04:41;7.10;;;4.80;;
966;SDS011;56108;48.730;9.304;2022-10-04T13:06:57;6.25;;;5.65;;
966;SDS011;56108;48.730;9.304;2022-10-04T13:09:17;6.32;;;4.63;;
966;SDS011;56108;48.730;9.304;2022-10-04T13:11:40;5.70;;;5.20;;
966;SDS011;56108;48.730;9.304;2022-10-04T13:14:06;5.05;;;4.40;;
966;SDS011;56108;48.730;9.304;2022-10-04T13:16:38;4.78;;;4.38;;
966;SDS011;56108;48.730;9.304;2022-10-04T13:19:17;4.50;;;4.10;;
966;SDS011;56108;48.730;9.304;2022-10-04T13:21:46;4.55;;;4.15;;
966;SDS011;56108;48.730;9.304;2022-10-04T13:24:12;4.70;;;4.30;;
966;SDS011;56108;48.730;9.304;2022-10-04T13:26:36;7.20;;;4.60;;
966;SDS011;56108;48.730;9.304;2022-10-04T13:28:55;4.22;;;3.92;;
966;SDS011;56108;48.730;9.304;2022-10-04T13:31:12;9.50;;;4.78;;
966;SDS011;56108;48.730;9.304;2022-10-04T13:33:31;4.72;;;4.13;;
966;SDS011;56108;48.730;9.304;2022-10-04T13:35:50;4.15;;;3.85;;
966;SDS011;56108;48.730;9.304;2022-10-04T13:38:10;4.53;;;4.13;;
966;SDS011;56108;48.730;9.304;2022-10-04T13:40:47;3.78;;;3.35;;
966;SDS011;56108;48.730;9.304;2022-10-04T13:43:22;5.20;;;4.70;;
966;SDS011;56108;48.730;9.304;2022-10-04T13:46:05;5.30;;;4.60;;
966;SDS011;56108;48.730;9.304;2022-10-04T13:48:26;5.43;;;4.15;;
966;SDS011;56108;48.730;9.304;2022-10-04T13:50:43;4.75;;;4.35;;
966;SDS011;56108;48.730;9.304;2022-10-04T13:53:12;5.65;;;4.28;;
966;SDS011;56108;48.730;9.304;2022-10-04T13:55:44;4.63;;;4.22;;
966;SDS011;56108;48.730;9.304;2022-10-04T13:58:27;4.13;;;3.83;;
966;SDS011;56108;48.730;9.304;2022-10-04T14:03:39;4.03;;;3.70;;
966;SDS011;56108;48.730;9.304;2022-10-04T14:19:51;3.65;;;3.35;;
966;SDS011;56108;48.730;9.304;2022-10-04T14:30:51;7.78;;;4.25;;
966;SDS011;56108;48.730;9.304;2022-10-04T14:33:14;4.65;;;4.25;;
966;SDS011;56108;48.730;9.304;2022-10-04T14:35:41;4.50;;;4.13;;
966;SDS011;56108;48.730;9.304;2022-10-04T14:38:11;5.38;;;3.60;;
966;SDS011;56108;48.730;9.304;2022-10-04T14:46:13;4.35;;;3.55;;
966;SDS011;56108;48.730;9.304;2022-10-04T14:48:29;4.22;;;3.80;;
966;SDS011;56108;48.730;9.304;2022-10-04T14:50:50;3.40;;;3.10;;
966;SDS011;56108;48.730;9.304;2022-10-04T14:53:13;3.22;;;3.03;;
966;SDS011;56108;48.730;9.304;2022-10-04T14:58:16;3.97;;;3.67;;
966;SDS011;56108;48.730;9.304;2022-10-04T15:00:35;4.05;;;3.50;;
966;SDS011;56108;48.730;9.304;2022-10-04T15:03:23;3.55;;;3.25;;
966;SDS011;56108;48.730;9.304;2022-10-04T15:05:39;3.50;;;3.20;;
966;SDS011;56108;48.730;9.304;2022-10-04T15:07:53;4.82;;;3.30;;
966;SDS011;56108;48.730;9.304;2022-10-04T15:10:16;4.60;;;3.67;;
966;SDS011;56108;48.730;9.304;2022-10-04T15:12:41;3.08;;;2.88;;
966;SDS011;56108;48.730;9.304;2022-10-04T15:15:25;3.42;;;3.15;;
966;SDS011;56108;48.730;9.304;2022-10-04T15:17:41;3.85;;;3.55;;
966;SDS011;56108;48.730;9.304;2022-10-04T15:20:13;3.70;;;2.75;;
966;SDS011;56108;48.730;9.304;2022-10-04T15:22:29;3.80;;;3.20;;
966;SDS011;56108;48.730;9.304;2022-10-04T15:24:48;3.00;;;2.90;;
966;SDS011;56108;48.730;9.304;2022-10-04T15:29:44;4.60;;;3.72;;
966;SDS011;56108;48.730;9.304;2022-10-04T15:32:04;4.95;;;2.97;;
966;SDS011;56108;48.730;9.304;2022-10-04T15:34:26;4.18;;;3.78;;
966;SDS011;56108;48.730;9.304;2022-10-04T15:36:50;3.70;;;3.40;;
966;SDS011;56108;48.730;9.304;2022-10-04T15:39:31;3.40;;;3.10;;
966;SDS011;56108;48.730;9.304;2022-10-04T15:41:48;3.22;;;3.03;;
966;SDS011;56108;48.730;9.304;2022-10-04T15:44:10;3.47;;;2.95;;
966;SDS011;56108;48.730;9.304;2022-10-04T15:46:36;4.40;;;3.35;;
966;SDS011;56108;48.730;9.304;2022-10-04T15:48:57;3.53;;;3.33;;
966;SDS011;56108;48.730;9.304;2022-10-04T15:51:36;4.20;;;3.80;;
966;SDS011;56108;48.730;9.304;2022-10-04T15:56:43;3.50;;;3.17;;
966;SDS011;56108;48.730;9.304;2022-10-04T16:04:11;4.40;;;3.50;;
966;SDS011;56108;48.730;9.304;2022-10-04T16:06:32;4.75;;;3.60;;
966;SDS011;56108;48.730;9.304;2022-10-04T16:09:04;3.38;;;2.95;;
966;SDS011;56108;48.730;9.304;2022-10-04T16:14:12;3.63;;;3.33;;
966;SDS011;56108;48.730;9.304;2022-10-04T16:16:40;4.25;;;3.53;;
966;SDS011;56108;48.730;9.304;2022-10-04T16:19:06;3.63;;;3.33;;
966;SDS011;56108;48.730;9.304;2022-10-04T16:21:27;5.03;;;3.47;;
966;SDS011;56108;48.730;9.304;2022-10-04T16:23:39;5.88;;;3.42;;
966;SDS011;56108;48.730;9.304;2022-10-04T16:25:49;3.63;;;3.30;;
966;SDS011;56108;48.730;9.304;2022-10-04T16:27:59;6.18;;;3.15;;
966;SDS011;56108;48.730;9.304;2022-10-04T16:30:26;3.33;;;2.95;;